sensor_id;sensor_type;location;lat;lon;timestamp;P1;durP1;ratioP1;P2;durP2;ratioP2
79128;SDS011;68529;43.286;23.360;2023-04-27T00:01:30;4.53;;;2.90;;
79128;SDS011;68529;43.286;23.360;2023-04-27T00:03:56;5.37;;;2.93;;
79128;SDS011;68529;43.286;23.360;2023-04-27T00:06:22;9.43;;;3.20;;
79128;SDS011;68529;43.286;23.360;2023-04-27T00:08:47;7.50;;;2.90;;
79128;SDS011;68529;43.286;23.360;2023-04-27T00:11:13;5.60;;;2.90;;
79128;SDS011;68529;43.286;23.360;2023-04-27T00:13:38;5.77;;;2.80;;
79128;SDS011;68529;43.286;23.360;2023-04-27T00:16:04;7.20;;;2.83;;
79128;SDS011;68529;43.286;23.360;2023-04-27T00:18:30;6.47;;;3.17;;
79128;SDS011;68529;43.286;23.360;2023-04-27T00:20:56;5.33;;;3.13;;
79128;SDS011;68529;43.286;23.360;2023-04-27T00:23:21;7.17;;;3.03;;
79128;SDS011;68529;43.286;23.360;2023-04-27T00:25:47;5.67;;;3.07;;
79128;SDS011;68529;43.286;23.360;2023-04-27T00:28:12;5.27;;;2.73;;
79128;SDS011;68529;43.286;23.360;2023-04-27T00:30:37;6.43;;;2.93;;
79128;SDS011;68529;43.286;23.360;2023-04-27T00:33:03;4.20;;;2.97;;
79128;SDS011;68529;43.286;23.360;2023-04-27T00:35:28;6.03;;;3.23;;
79128;SDS011;68529;43.286;23.360;2023-04-27T00:37:54;5.90;;;3.63;;
79128;SDS011;68529;43.286;23.360;2023-04-27T00:40:19;4.70;;;2.77;;
79128;SDS011;68529;43.286;23.360;2023-04-27T00:42:45;4.43;;;2.73;;
79128;SDS011;68529;43.286;23.360;2023-04-27T00:45:11;5.00;;;2.90;;
79128;SDS011;68529;43.286;23.360;2023-04-27T00:47:37;6.03;;;2.97;;
79128;SDS011;68529;43.286;23.360;2023-04-27T00:50:03;6.40;;;3.03;;
79128;SDS011;68529;43.286;23.360;2023-04-27T00:52:32;6.00;;;2.93;;
79128;SDS011;68529;43.286;23.360;2023-04-27T00:54:59;4.07;;;2.93;;
79128;SDS011;68529;43.286;23.360;2023-04-27T00:57:28;3.93;;;2.40;;
79128;SDS011;68529;43.286;23.360;2023-04-27T00:59:53;6.17;;;3.03;;
79128;SDS011;68529;43.286;23.360;2023-04-27T01:02:19;5.33;;;2.73;;
79128;SDS011;68529;43.286;23.360;2023-04-27T01:04:44;6.33;;;3.00;;
79128;SDS011;68529;43.286;23.360;2023-04-27T01:07:10;5.43;;;2.70;;
79128;SDS011;68529;43.286;23.360;2023-04-27T01:09:35;6.63;;;2.93;;
79128;SDS011;68529;43.286;23.360;2023-04-27T01:12:01;5.13;;;2.83;;
79128;SDS011;68529;43.286;23.360;2023-04-27T01:14:27;5.03;;;2.40;;
79128;SDS011;68529;43.286;23.360;2023-04-27T01:16:52;4.50;;;2.60;;
79128;SDS011;68529;43.286;23.360;2023-04-27T01:19:18;6.73;;;2.93;;
79128;SDS011;68529;43.286;23.360;2023-04-27T01:21:43;6.20;;;3.20;;
79128;SDS011;68529;43.286;23.360;2023-04-27T01:24:08;8.53;;;2.70;;
79128;SDS011;68529;43.286;23.360;2023-04-27T01:26:34;4.10;;;2.60;;
79128;SDS011;68529;43.286;23.360;2023-04-27T01:28:59;5.90;;;2.93;;
79128;SDS011;68529;43.286;23.360;2023-04-27T01:31:25;3.57;;;2.60;;
79128;SDS011;68529;43.286;23.360;2023-04-27T01:33:50;3.97;;;2.70;;
79128;SDS011;68529;43.286;23.360;2023-04-27T01:36:16;4.27;;;2.63;;
79128;SDS011;68529;43.286;23.360;2023-04-27T01:38:41;4.97;;;2.90;;
79128;SDS011;68529;43.286;23.360;2023-04-27T01:41:07;4.73;;;2.50;;
79128;SDS011;68529;43.286;23.360;2023-04-27T01:43:33;7.73;;;3.17;;
79128;SDS011;68529;43.286;23.360;2023-04-27T01:46:10;6.23;;;2.80;;
79128;SDS011;68529;43.286;23.360;2023-04-27T01:48:37;6.50;;;2.60;;
79128;SDS011;68529;43.286;23.360;2023-04-27T01:51:03;3.40;;;2.50;;
79128;SDS011;68529;43.286;23.360;2023-04-27T01:53:29;3.70;;;2.60;;
79128;SDS011;68529;43.286;23.360;2023-04-27T01:55:55;6.73;;;2.60;;
79128;SDS011;68529;43.286;23.360;2023-04-27T01:58:21;5.27;;;2.70;;
79128;SDS011;68529;43.286;23.360;2023-04-27T02:00:46;6.77;;;2.90;;
79128;SDS011;68529;43.286;23.360;2023-04-27T02:03:12;4.90;;;2.70;;
79128;SDS011;68529;43.286;23.360;2023-04-27T02:05:37;4.23;;;2.80;;
79128;SDS011;68529;43.286;23.360;2023-04-27T02:08:03;5.13;;;2.70;;
79128;SDS011;68529;43.286;23.360;2023-04-27T02:10:29;3.50;;;2.60;;
79128;SDS011;68529;43.286;23.360;2023-04-27T02:12:54;3.77;;;2.00;;
79128;SDS011;68529;43.286;23.360;2023-04-27T02:15:20;5.30;;;2.80;;
79128;SDS011;68529;43.286;23.360;2023-04-27T02:17:46;5.93;;;2.90;;
79128;SDS011;68529;43.286;23.360;2023-04-27T02:20:11;6.30;;;3.00;;
79128;SDS011;68529;43.286;23.360;2023-04-27T02:22:40;3.83;;;2.97;;
79128;SDS011;68529;43.286;23.360;2023-04-27T02:25:10;5.83;;;3.10;;
79128;SDS011;68529;43.286;23.360;2023-04-27T02:27:36;3.40;;;2.70;;
79128;SDS011;68529;43.286;23.360;2023-04-27T02:30:03;3.97;;;2.63;;
79128;SDS011;68529;43.286;23.360;2023-04-27T02:32:30;4.43;;;2.90;;
79128;SDS011;68529;43.286;23.360;2023-04-27T02:34:55;5.20;;;2.53;;
79128;SDS011;68529;43.286;23.360;2023-04-27T02:37:20;7.50;;;3.07;;
79128;SDS011;68529;43.286;23.360;2023-04-27T02:39:46;3.93;;;2.43;;
79128;SDS011;68529;43.286;23.360;2023-04-27T02:42:11;5.43;;;2.87;;
79128;SDS011;68529;43.286;23.360;2023-04-27T02:44:37;4.77;;;2.80;;
79128;SDS011;68529;43.286;23.360;2023-04-27T02:47:02;4.40;;;2.90;;
79128;SDS011;68529;43.286;23.360;2023-04-27T02:49:27;4.93;;;2.77;;
79128;SDS011;68529;43.286;23.360;2023-04-27T02:51:53;4.23;;;2.80;;
79128;SDS011;68529;43.286;23.360;2023-04-27T02:54:18;7.00;;;3.03;;
79128;SDS011;68529;43.286;23.360;2023-04-27T02:56:43;3.40;;;2.60;;
79128;SDS011;68529;43.286;23.360;2023-04-27T02:59:09;5.47;;;2.77;;
79128;SDS011;68529;43.286;23.360;2023-04-27T03:01:34;4.00;;;2.63;;
79128;SDS011;68529;43.286;23.360;2023-04-27T03:04:00;7.43;;;2.80;;
79128;SDS011;68529;43.286;23.360;2023-04-27T03:06:26;5.83;;;3.40;;
79128;SDS011;68529;43.286;23.360;2023-04-27T03:08:51;3.27;;;2.73;;
79128;SDS011;68529;43.286;23.360;2023-04-27T03:11:17;4.63;;;2.60;;
79128;SDS011;68529;43.286;23.360;2023-04-27T03:13:42;4.57;;;2.30;;
79128;SDS011;68529;43.286;23.360;2023-04-27T03:16:08;5.10;;;2.63;;
79128;SDS011;68529;43.286;23.360;2023-04-27T03:18:35;3.67;;;2.90;;
79128;SDS011;68529;43.286;23.360;2023-04-27T03:21:10;4.97;;;2.57;;
79128;SDS011;68529;43.286;23.360;2023-04-27T03:23:36;4.93;;;2.90;;
79128;SDS011;68529;43.286;23.360;2023-04-27T03:26:08;5.47;;;3.07;;
79128;SDS011;68529;43.286;23.360;2023-04-27T03:28:35;5.77;;;2.87;;
79128;SDS011;68529;43.286;23.360;2023-04-27T03:31:18;4.10;;;2.83;;
79128;SDS011;68529;43.286;23.360;2023-04-27T03:33:44;5.40;;;2.87;;
79128;SDS011;68529;43.286;23.360;2023-04-27T03:36:09;4.07;;;2.30;;
79128;SDS011;68529;43.286;23.360;2023-04-27T03:38:35;4.17;;;2.50;;
79128;SDS011;68529;43.286;23.360;2023-04-27T03:41:01;6.70;;;2.97;;
79128;SDS011;68529;43.286;23.360;2023-04-27T03:43:27;3.70;;;2.87;;
79128;SDS011;68529;43.286;23.360;2023-04-27T03:45:52;3.30;;;3.00;;
79128;SDS011;68529;43.286;23.360;2023-04-27T03:48:18;6.33;;;2.80;;
79128;SDS011;68529;43.286;23.360;2023-04-27T03:50:43;4.33;;;2.93;;
79128;SDS011;68529;43.286;23.360;2023-04-27T03:53:10;6.13;;;3.20;;
79128;SDS011;68529;43.286;23.360;2023-04-27T03:55:37;5.53;;;2.57;;
79128;SDS011;68529;43.286;23.360;2023-04-27T03:58:03;3.93;;;2.77;;
79128;SDS011;68529;43.286;23.360;2023-04-27T04:00:28;6.37;;;3.10;;
79128;SDS011;68529;43.286;23.360;2023-04-27T04:02:54;5.13;;;2.77;;
79128;SDS011;68529;43.286;23.360;2023-04-27T04:05:19;7.23;;;3.00;;
79128;SDS011;68529;43.286;23.360;2023-04-27T04:07:45;5.13;;;2.87;;
79128;SDS011;68529;43.286;23.360;2023-04-27T04:10:10;4.93;;;3.40;;
79128;SDS011;68529;43.286;23.360;2023-04-27T04:12:36;5.93;;;3.33;;
79128;SDS011;68529;43.286;23.360;2023-04-27T04:15:02;3.67;;;2.80;;
79128;SDS011;68529;43.286;23.360;2023-04-27T04:17:28;3.87;;;2.63;;
79128;SDS011;68529;43.286;23.360;2023-04-27T04:19:53;5.83;;;3.07;;
79128;SDS011;68529;43.286;23.360;2023-04-27T04:22:18;3.83;;;2.67;;
79128;SDS011;68529;43.286;23.360;2023-04-27T04:24:44;6.17;;;2.93;;
79128;SDS011;68529;43.286;23.360;2023-04-27T04:27:09;5.40;;;2.90;;
79128;SDS011;68529;43.286;23.360;2023-04-27T04:29:35;6.53;;;3.27;;
79128;SDS011;68529;43.286;23.360;2023-04-27T04:32:00;4.83;;;2.97;;
79128;SDS011;68529;43.286;23.360;2023-04-27T04:34:26;4.00;;;2.80;;
79128;SDS011;68529;43.286;23.360;2023-04-27T04:36:53;4.93;;;3.00;;
79128;SDS011;68529;43.286;23.360;2023-04-27T04:39:21;3.40;;;3.10;;
79128;SDS011;68529;43.286;23.360;2023-04-27T04:41:47;6.27;;;2.93;;
79128;SDS011;68529;43.286;23.360;2023-04-27T04:44:16;4.80;;;3.20;;
79128;SDS011;68529;43.286;23.360;2023-04-27T04:46:42;5.93;;;3.13;;
79128;SDS011;68529;43.286;23.360;2023-04-27T04:49:07;5.50;;;3.17;;
79128;SDS011;68529;43.286;23.360;2023-04-27T04:51:33;4.87;;;2.70;;
79128;SDS011;68529;43.286;23.360;2023-04-27T04:53:59;6.67;;;3.53;;
79128;SDS011;68529;43.286;23.360;2023-04-27T04:56:25;9.63;;;3.80;;
79128;SDS011;68529;43.286;23.360;2023-04-27T04:58:50;10.37;;;4.20;;
79128;SDS011;68529;43.286;23.360;2023-04-27T05:01:16;6.13;;;4.37;;
79128;SDS011;68529;43.286;23.360;2023-04-27T05:03:41;3.30;;;3.00;;
79128;SDS011;68529;43.286;23.360;2023-04-27T05:06:07;5.00;;;2.87;;
79128;SDS011;68529;43.286;23.360;2023-04-27T05:08:33;5.87;;;2.87;;
79128;SDS011;68529;43.286;23.360;2023-04-27T05:10:58;5.13;;;3.10;;
79128;SDS011;68529;43.286;23.360;2023-04-27T05:13:24;4.77;;;2.60;;
79128;SDS011;68529;43.286;23.360;2023-04-27T05:15:49;4.73;;;2.60;;
79128;SDS011;68529;43.286;23.360;2023-04-27T05:18:16;4.50;;;3.23;;
79128;SDS011;68529;43.286;23.360;2023-04-27T05:20:41;4.30;;;3.03;;
79128;SDS011;68529;43.286;23.360;2023-04-27T05:23:07;4.67;;;3.63;;
79128;SDS011;68529;43.286;23.360;2023-04-27T05:25:32;5.67;;;3.43;;
79128;SDS011;68529;43.286;23.360;2023-04-27T05:27:59;4.57;;;3.27;;
79128;SDS011;68529;43.286;23.360;2023-04-27T05:30:24;5.60;;;3.50;;
79128;SDS011;68529;43.286;23.360;2023-04-27T05:32:50;6.40;;;2.93;;
79128;SDS011;68529;43.286;23.360;2023-04-27T05:35:15;5.70;;;3.37;;
79128;SDS011;68529;43.286;23.360;2023-04-27T05:37:40;5.00;;;2.93;;
79128;SDS011;68529;43.286;23.360;2023-04-27T05:40:06;4.03;;;2.50;;
79128;SDS011;68529;43.286;23.360;2023-04-27T05:42:35;6.33;;;2.77;;
79128;SDS011;68529;43.286;23.360;2023-04-27T05:45:00;4.93;;;3.00;;
79128;SDS011;68529;43.286;23.360;2023-04-27T05:47:27;4.73;;;2.67;;
79128;SDS011;68529;43.286;23.360;2023-04-27T05:49:52;6.80;;;3.27;;
79128;SDS011;68529;43.286;23.360;2023-04-27T05:52:18;4.97;;;2.87;;
79128;SDS011;68529;43.286;23.360;2023-04-27T05:54:48;6.77;;;2.73;;
79128;SDS011;68529;43.286;23.360;2023-04-27T05:57:14;6.33;;;2.53;;
79128;SDS011;68529;43.286;23.360;2023-04-27T05:59:40;3.73;;;2.43;;
79128;SDS011;68529;43.286;23.360;2023-04-27T06:02:06;4.80;;;2.73;;
79128;SDS011;68529;43.286;23.360;2023-04-27T06:04:32;5.43;;;2.80;;
79128;SDS011;68529;43.286;23.360;2023-04-27T06:06:58;2.80;;;2.50;;
79128;SDS011;68529;43.286;23.360;2023-04-27T06:09:24;3.97;;;2.57;;
79128;SDS011;68529;43.286;23.360;2023-04-27T06:11:49;4.47;;;2.97;;
79128;SDS011;68529;43.286;23.360;2023-04-27T06:14:15;7.27;;;3.70;;
79128;SDS011;68529;43.286;23.360;2023-04-27T06:16:40;4.50;;;3.37;;
79128;SDS011;68529;43.286;23.360;2023-04-27T06:19:06;5.43;;;3.00;;
79128;SDS011;68529;43.286;23.360;2023-04-27T06:21:34;7.27;;;3.00;;
79128;SDS011;68529;43.286;23.360;2023-04-27T06:24:00;6.23;;;3.47;;
79128;SDS011;68529;43.286;23.360;2023-04-27T06:26:26;7.53;;;3.83;;
79128;SDS011;68529;43.286;23.360;2023-04-27T06:28:53;6.20;;;3.17;;
79128;SDS011;68529;43.286;23.360;2023-04-27T06:31:19;5.37;;;2.83;;
79128;SDS011;68529;43.286;23.360;2023-04-27T06:33:44;6.43;;;2.70;;
79128;SDS011;68529;43.286;23.360;2023-04-27T06:36:10;5.60;;;2.50;;
79128;SDS011;68529;43.286;23.360;2023-04-27T06:38:35;4.47;;;2.50;;
79128;SDS011;68529;43.286;23.360;2023-04-27T06:41:01;5.47;;;2.43;;
79128;SDS011;68529;43.286;23.360;2023-04-27T06:43:27;4.67;;;2.67;;
79128;SDS011;68529;43.286;23.360;2023-04-27T06:45:53;4.00;;;2.40;;
79128;SDS011;68529;43.286;23.360;2023-04-27T06:48:18;4.50;;;2.70;;
79128;SDS011;68529;43.286;23.360;2023-04-27T06:50:44;5.23;;;2.57;;
79128;SDS011;68529;43.286;23.360;2023-04-27T06:53:09;5.30;;;2.50;;
79128;SDS011;68529;43.286;23.360;2023-04-27T06:55:35;2.90;;;2.30;;
79128;SDS011;68529;43.286;23.360;2023-04-27T06:58:01;3.80;;;2.00;;
79128;SDS011;68529;43.286;23.360;2023-04-27T07:00:27;3.03;;;1.90;;
79128;SDS011;68529;43.286;23.360;2023-04-27T07:02:53;3.23;;;2.90;;
79128;SDS011;68529;43.286;23.360;2023-04-27T07:05:18;4.87;;;2.37;;
79128;SDS011;68529;43.286;23.360;2023-04-27T07:07:44;3.90;;;2.40;;
79128;SDS011;68529;43.286;23.360;2023-04-27T07:10:09;3.40;;;2.40;;
79128;SDS011;68529;43.286;23.360;2023-04-27T07:12:36;4.67;;;2.30;;
79128;SDS011;68529;43.286;23.360;2023-04-27T07:15:02;4.87;;;2.40;;
79128;SDS011;68529;43.286;23.360;2023-04-27T07:17:30;4.13;;;2.10;;
79128;SDS011;68529;43.286;23.360;2023-04-27T07:19:56;4.80;;;2.50;;
79128;SDS011;68529;43.286;23.360;2023-04-27T07:22:21;2.27;;;2.03;;
79128;SDS011;68529;43.286;23.360;2023-04-27T07:24:47;3.00;;;2.43;;
79128;SDS011;68529;43.286;23.360;2023-04-27T07:27:12;5.77;;;2.47;;
79128;SDS011;68529;43.286;23.360;2023-04-27T07:29:39;3.60;;;2.30;;
79128;SDS011;68529;43.286;23.360;2023-04-27T07:32:07;4.37;;;2.10;;
79128;SDS011;68529;43.286;23.360;2023-04-27T07:34:33;4.07;;;2.70;;
79128;SDS011;68529;43.286;23.360;2023-04-27T07:36:59;6.10;;;3.17;;
79128;SDS011;68529;43.286;23.360;2023-04-27T07:39:25;2.73;;;2.50;;
79128;SDS011;68529;43.286;23.360;2023-04-27T07:41:51;3.87;;;2.83;;
79128;SDS011;68529;43.286;23.360;2023-04-27T07:44:17;5.43;;;3.03;;
79128;SDS011;68529;43.286;23.360;2023-04-27T07:46:43;3.10;;;2.43;;
79128;SDS011;68529;43.286;23.360;2023-04-27T07:49:09;4.23;;;2.37;;
79128;SDS011;68529;43.286;23.360;2023-04-27T07:51:34;4.27;;;2.20;;
79128;SDS011;68529;43.286;23.360;2023-04-27T07:54:00;4.50;;;2.30;;
79128;SDS011;68529;43.286;23.360;2023-04-27T07:56:26;3.87;;;2.50;;
79128;SDS011;68529;43.286;23.360;2023-04-27T07:58:52;2.97;;;2.27;;
79128;SDS011;68529;43.286;23.360;2023-04-27T08:01:17;4.73;;;3.33;;
79128;SDS011;68529;43.286;23.360;2023-04-27T08:03:42;3.93;;;2.87;;
79128;SDS011;68529;43.286;23.360;2023-04-27T08:06:08;3.30;;;2.47;;
79128;SDS011;68529;43.286;23.360;2023-04-27T08:08:33;2.70;;;2.50;;
79128;SDS011;68529;43.286;23.360;2023-04-27T08:10:59;2.40;;;2.20;;
79128;SDS011;68529;43.286;23.360;2023-04-27T08:13:24;5.43;;;2.63;;
79128;SDS011;68529;43.286;23.360;2023-04-27T08:15:49;3.63;;;3.30;;
79128;SDS011;68529;43.286;23.360;2023-04-27T08:18:15;4.13;;;2.97;;
79128;SDS011;68529;43.286;23.360;2023-04-27T08:20:42;3.70;;;2.77;;
79128;SDS011;68529;43.286;23.360;2023-04-27T08:23:07;2.60;;;2.17;;
79128;SDS011;68529;43.286;23.360;2023-04-27T08:25:34;2.83;;;2.17;;
79128;SDS011;68529;43.286;23.360;2023-04-27T08:28:00;4.23;;;2.57;;
79128;SDS011;68529;43.286;23.360;2023-04-27T08:30:25;6.77;;;2.40;;
79128;SDS011;68529;43.286;23.360;2023-04-27T08:32:51;4.63;;;2.27;;
79128;SDS011;68529;43.286;23.360;2023-04-27T08:35:18;3.80;;;2.17;;
79128;SDS011;68529;43.286;23.360;2023-04-27T08:37:44;3.27;;;2.50;;
79128;SDS011;68529;43.286;23.360;2023-04-27T08:40:09;3.10;;;2.10;;
79128;SDS011;68529;43.286;23.360;2023-04-27T08:42:35;5.50;;;2.40;;
79128;SDS011;68529;43.286;23.360;2023-04-27T08:45:01;2.43;;;2.13;;
79128;SDS011;68529;43.286;23.360;2023-04-27T08:47:26;4.93;;;2.33;;
79128;SDS011;68529;43.286;23.360;2023-04-27T08:49:52;3.63;;;2.00;;
79128;SDS011;68529;43.286;23.360;2023-04-27T08:52:17;3.63;;;2.23;;
79128;SDS011;68529;43.286;23.360;2023-04-27T08:54:43;3.50;;;2.40;;
79128;SDS011;68529;43.286;23.360;2023-04-27T08:57:09;3.83;;;2.50;;
79128;SDS011;68529;43.286;23.360;2023-04-27T08:59:35;3.30;;;2.50;;
79128;SDS011;68529;43.286;23.360;2023-04-27T09:02:01;4.40;;;2.73;;
79128;SDS011;68529;43.286;23.360;2023-04-27T09:04:37;4.13;;;2.90;;
79128;SDS011;68529;43.286;23.360;2023-04-27T09:07:13;3.70;;;2.47;;
79128;SDS011;68529;43.286;23.360;2023-04-27T09:09:40;3.70;;;2.60;;
79128;SDS011;68529;43.286;23.360;2023-04-27T09:12:12;5.87;;;2.70;;
79128;SDS011;68529;43.286;23.360;2023-04-27T09:14:39;4.07;;;2.50;;
79128;SDS011;68529;43.286;23.360;2023-04-27T09:17:05;4.17;;;2.60;;
79128;SDS011;68529;43.286;23.360;2023-04-27T09:19:31;4.17;;;2.20;;
79128;SDS011;68529;43.286;23.360;2023-04-27T09:22:03;3.57;;;2.40;;
79128;SDS011;68529;43.286;23.360;2023-04-27T09:24:35;2.67;;;2.20;;
79128;SDS011;68529;43.286;23.360;2023-04-27T09:27:01;3.20;;;2.10;;
79128;SDS011;68529;43.286;23.360;2023-04-27T09:29:35;3.73;;;2.83;;
79128;SDS011;68529;43.286;23.360;2023-04-27T09:32:01;4.67;;;2.20;;
79128;SDS011;68529;43.286;23.360;2023-04-27T09:34:36;3.13;;;2.17;;
79128;SDS011;68529;43.286;23.360;2023-04-27T09:37:04;2.57;;;2.10;;
79128;SDS011;68529;43.286;23.360;2023-04-27T09:39:30;3.40;;;1.97;;
79128;SDS011;68529;43.286;23.360;2023-04-27T09:41:55;4.00;;;2.60;;
79128;SDS011;68529;43.286;23.360;2023-04-27T09:44:21;2.30;;;2.00;;
79128;SDS011;68529;43.286;23.360;2023-04-27T09:46:46;3.65;;;2.15;;
79128;SDS011;68529;43.286;23.360;2023-04-27T09:49:12;4.25;;;2.50;;
79128;SDS011;68529;43.286;23.360;2023-04-27T09:51:40;4.10;;;2.53;;
79128;SDS011;68529;43.286;23.360;2023-04-27T09:54:05;3.25;;;2.95;;
79128;SDS011;68529;43.286;23.360;2023-04-27T09:56:45;4.03;;;2.88;;
79128;SDS011;68529;43.286;23.360;2023-04-27T10:01:53;3.95;;;2.80;;
79128;SDS011;68529;43.286;23.360;2023-04-27T10:04:35;3.55;;;2.20;;
79128;SDS011;68529;43.286;23.360;2023-04-27T10:12:16;4.43;;;2.10;;
79128;SDS011;68529;43.286;23.360;2023-04-27T10:14:47;3.83;;;2.08;;
79128;SDS011;68529;43.286;23.360;2023-04-27T10:17:16;2.85;;;2.45;;
79128;SDS011;68529;43.286;23.360;2023-04-27T10:19:51;3.72;;;2.20;;
79128;SDS011;68529;43.286;23.360;2023-04-27T10:22:18;2.78;;;1.80;;
79128;SDS011;68529;43.286;23.360;2023-04-27T10:24:47;7.25;;;2.17;;
79128;SDS011;68529;43.286;23.360;2023-04-27T10:27:17;5.60;;;3.22;;
79128;SDS011;68529;43.286;23.360;2023-04-27T10:29:49;6.45;;;2.30;;
79128;SDS011;68529;43.286;23.360;2023-04-27T10:32:23;5.07;;;3.83;;
79128;SDS011;68529;43.286;23.360;2023-04-27T10:34:50;8.63;;;2.05;;
79128;SDS011;68529;43.286;23.360;2023-04-27T10:37:37;5.90;;;1.88;;
79128;SDS011;68529;43.286;23.360;2023-04-27T10:40:06;2.95;;;2.30;;
79128;SDS011;68529;43.286;23.360;2023-04-27T10:42:34;4.45;;;2.00;;
79128;SDS011;68529;43.286;23.360;2023-04-27T10:45:00;3.50;;;1.98;;
79128;SDS011;68529;43.286;23.360;2023-04-27T10:47:36;2.40;;;2.20;;
79128;SDS011;68529;43.286;23.360;2023-04-27T10:50:11;4.00;;;2.10;;
79128;SDS011;68529;43.286;23.360;2023-04-27T10:52:43;3.35;;;2.40;;
79128;SDS011;68529;43.286;23.360;2023-04-27T10:55:14;3.33;;;2.30;;
79128;SDS011;68529;43.286;23.360;2023-04-27T10:57:44;3.60;;;2.10;;
79128;SDS011;68529;43.286;23.360;2023-04-27T11:00:15;1.90;;;1.75;;
79128;SDS011;68529;43.286;23.360;2023-04-27T11:02:54;3.65;;;1.98;;
79128;SDS011;68529;43.286;23.360;2023-04-27T11:05:25;2.15;;;1.90;;
79128;SDS011;68529;43.286;23.360;2023-04-27T11:08:03;4.43;;;2.08;;
79128;SDS011;68529;43.286;23.360;2023-04-27T11:10:30;2.78;;;2.30;;
79128;SDS011;68529;43.286;23.360;2023-04-27T11:12:56;4.10;;;2.15;;
79128;SDS011;68529;43.286;23.360;2023-04-27T11:15:21;3.72;;;2.30;;
79128;SDS011;68529;43.286;23.360;2023-04-27T11:17:47;2.08;;;1.92;;
79128;SDS011;68529;43.286;23.360;2023-04-27T11:20:13;2.88;;;2.38;;
79128;SDS011;68529;43.286;23.360;2023-04-27T11:22:43;5.15;;;2.30;;
79128;SDS011;68529;43.286;23.360;2023-04-27T11:25:12;3.30;;;2.10;;
79128;SDS011;68529;43.286;23.360;2023-04-27T11:27:38;3.85;;;2.45;;
79128;SDS011;68529;43.286;23.360;2023-04-27T11:30:05;3.72;;;2.20;;
79128;SDS011;68529;43.286;23.360;2023-04-27T11:32:31;2.92;;;1.92;;
79128;SDS011;68529;43.286;23.360;2023-04-27T11:34:57;2.33;;;1.98;;
79128;SDS011;68529;43.286;23.360;2023-04-27T11:37:25;3.38;;;2.15;;
79128;SDS011;68529;43.286;23.360;2023-04-27T11:39:52;2.95;;;2.05;;
79128;SDS011;68529;43.286;23.360;2023-04-27T11:47:19;4.45;;;1.85;;
79128;SDS011;68529;43.286;23.360;2023-04-27T11:49:49;3.95;;;2.10;;
79128;SDS011;68529;43.286;23.360;2023-04-27T11:52:16;4.53;;;1.80;;
79128;SDS011;68529;43.286;23.360;2023-04-27T11:54:46;3.88;;;2.33;;
79128;SDS011;68529;43.286;23.360;2023-04-27T11:57:17;4.47;;;2.03;;
79128;SDS011;68529;43.286;23.360;2023-04-27T11:59:48;4.30;;;2.10;;
79128;SDS011;68529;43.286;23.360;2023-04-27T12:02:14;2.40;;;2.10;;
79128;SDS011;68529;43.286;23.360;2023-04-27T12:04:40;4.15;;;2.30;;
79128;SDS011;68529;43.286;23.360;2023-04-27T12:07:06;2.08;;;1.50;;
79128;SDS011;68529;43.286;23.360;2023-04-27T12:09:32;2.50;;;2.17;;
79128;SDS011;68529;43.286;23.360;2023-04-27T12:11:58;2.17;;;1.98;;
79128;SDS011;68529;43.286;23.360;2023-04-27T12:14:23;2.30;;;2.00;;
79128;SDS011;68529;43.286;23.360;2023-04-27T12:16:49;3.08;;;1.85;;
79128;SDS011;68529;43.286;23.360;2023-04-27T12:19:15;3.33;;;1.80;;
79128;SDS011;68529;43.286;23.360;2023-04-27T12:21:41;3.35;;;1.75;;
79128;SDS011;68529;43.286;23.360;2023-04-27T12:24:06;3.83;;;2.45;;
79128;SDS011;68529;43.286;23.360;2023-04-27T12:26:32;3.08;;;2.13;;
79128;SDS011;68529;43.286;23.360;2023-04-27T12:29:00;1.98;;;1.67;;
79128;SDS011;68529;43.286;23.360;2023-04-27T12:31:28;2.38;;;1.85;;
79128;SDS011;68529;43.286;23.360;2023-04-27T12:33:55;2.20;;;1.70;;
79128;SDS011;68529;43.286;23.360;2023-04-27T12:36:20;1.65;;;1.55;;
79128;SDS011;68529;43.286;23.360;2023-04-27T12:38:45;2.35;;;1.75;;
79128;SDS011;68529;43.286;23.360;2023-04-27T12:41:11;3.50;;;1.98;;
79128;SDS011;68529;43.286;23.360;2023-04-27T12:43:37;2.85;;;2.03;;
79128;SDS011;68529;43.286;23.360;2023-04-27T12:46:04;2.08;;;1.67;;
79128;SDS011;68529;43.286;23.360;2023-04-27T12:48:29;2.13;;;1.80;;
79128;SDS011;68529;43.286;23.360;2023-04-27T12:50:55;1.63;;;1.50;;
79128;SDS011;68529;43.286;23.360;2023-04-27T12:53:21;3.78;;;2.33;;
79128;SDS011;68529;43.286;23.360;2023-04-27T12:55:46;1.95;;;1.70;;
79128;SDS011;68529;43.286;23.360;2023-04-27T12:58:11;2.05;;;1.88;;
79128;SDS011;68529;43.286;23.360;2023-04-27T13:00:37;4.75;;;2.30;;
79128;SDS011;68529;43.286;23.360;2023-04-27T13:03:02;2.22;;;1.65;;
79128;SDS011;68529;43.286;23.360;2023-04-27T13:05:28;2.45;;;2.10;;
79128;SDS011;68529;43.286;23.360;2023-04-27T13:07:54;2.78;;;2.25;;
79128;SDS011;68529;43.286;23.360;2023-04-27T13:10:19;3.47;;;2.03;;
79128;SDS011;68529;43.286;23.360;2023-04-27T13:12:45;3.15;;;1.80;;
79128;SDS011;68529;43.286;23.360;2023-04-27T13:15:10;2.85;;;2.10;;
79128;SDS011;68529;43.286;23.360;2023-04-27T13:17:36;3.65;;;1.85;;
79128;SDS011;68529;43.286;23.360;2023-04-27T13:20:01;2.60;;;1.85;;
79128;SDS011;68529;43.286;23.360;2023-04-27T13:22:27;2.50;;;1.92;;
79128;SDS011;68529;43.286;23.360;2023-04-27T13:24:52;2.50;;;1.67;;
79128;SDS011;68529;43.286;23.360;2023-04-27T13:27:18;1.75;;;1.38;;
79128;SDS011;68529;43.286;23.360;2023-04-27T13:29:46;2.53;;;2.03;;
79128;SDS011;68529;43.286;23.360;2023-04-27T13:32:13;2.63;;;1.70;;
79128;SDS011;68529;43.286;23.360;2023-04-27T13:34:39;2.45;;;1.80;;
79128;SDS011;68529;43.286;23.360;2023-04-27T13:37:04;4.43;;;2.25;;
79128;SDS011;68529;43.286;23.360;2023-04-27T13:39:30;5.05;;;2.28;;
79128;SDS011;68529;43.286;23.360;2023-04-27T13:41:56;2.88;;;2.17;;
79128;SDS011;68529;43.286;23.360;2023-04-27T13:44:22;3.03;;;2.08;;
79128;SDS011;68529;43.286;23.360;2023-04-27T13:46:47;3.05;;;2.20;;
79128;SDS011;68529;43.286;23.360;2023-04-27T13:49:12;4.03;;;2.15;;
79128;SDS011;68529;43.286;23.360;2023-04-27T13:51:38;3.03;;;2.30;;
79128;SDS011;68529;43.286;23.360;2023-04-27T13:54:04;8.02;;;2.28;;
79128;SDS011;68529;43.286;23.360;2023-04-27T13:56:30;3.55;;;1.90;;
79128;SDS011;68529;43.286;23.360;2023-04-27T13:58:55;4.22;;;2.00;;
79128;SDS011;68529;43.286;23.360;2023-04-27T14:01:20;5.32;;;2.03;;
79128;SDS011;68529;43.286;23.360;2023-04-27T14:03:46;2.30;;;2.10;;
79128;SDS011;68529;43.286;23.360;2023-04-27T14:06:12;4.68;;;2.30;;
79128;SDS011;68529;43.286;23.360;2023-04-27T14:08:37;2.78;;;2.08;;
79128;SDS011;68529;43.286;23.360;2023-04-27T14:11:02;2.65;;;2.10;;
79128;SDS011;68529;43.286;23.360;2023-04-27T14:13:29;4.13;;;2.42;;
79128;SDS011;68529;43.286;23.360;2023-04-27T14:15:55;3.42;;;2.10;;
79128;SDS011;68529;43.286;23.360;2023-04-27T14:18:20;4.85;;;2.65;;
79128;SDS011;68529;43.286;23.360;2023-04-27T14:20:46;2.60;;;2.28;;
79128;SDS011;68529;43.286;23.360;2023-04-27T14:23:11;3.03;;;2.10;;
79128;SDS011;68529;43.286;23.360;2023-04-27T14:25:36;3.63;;;2.27;;
79128;SDS011;68529;43.286;23.360;2023-04-27T14:28:03;5.97;;;2.30;;
79128;SDS011;68529;43.286;23.360;2023-04-27T14:30:30;6.60;;;2.10;;
79128;SDS011;68529;43.286;23.360;2023-04-27T14:32:56;6.50;;;2.50;;
79128;SDS011;68529;43.286;23.360;2023-04-27T14:35:22;6.30;;;2.87;;
79128;SDS011;68529;43.286;23.360;2023-04-27T14:37:48;2.43;;;2.10;;
79128;SDS011;68529;43.286;23.360;2023-04-27T14:40:14;6.07;;;2.60;;
79128;SDS011;68529;43.286;23.360;2023-04-27T14:42:40;7.23;;;2.67;;